createdAt,value
2023-02-25T05:47:37.240Z,5.63
2023-02-25T05:50:05.722Z,5.80
2023-02-25T05:52:33.756Z,4.93
2023-02-25T05:55:02.102Z,4.90
2023-02-25T05:57:30.256Z,4.07
2023-02-25T05:59:58.145Z,4.03
2023-02-25T06:02:26.525Z,3.40
2023-02-25T06:04:56.224Z,3.22
2023-02-25T06:07:24.523Z,2.95
2023-02-25T06:09:52.386Z,2.85
2023-02-25T06:12:20.316Z,2.40
2023-02-25T06:14:48.180Z,2.67
2023-02-25T06:17:16.082Z,2.40
2023-02-25T06:19:43.961Z,2.70
2023-02-25T06:22:13.535Z,2.40
2023-02-25T06:24:41.664Z,2.22
2023-02-25T06:27:09.612Z,2.53
2023-02-25T06:29:41.981Z,2.70
2023-02-25T06:32:10.284Z,3.05
2023-02-25T06:34:38.672Z,3.00
2023-02-25T06:37:11.824Z,2.88
2023-02-25T06:39:43.074Z,2.53
2023-02-25T06:42:11.118Z,2.90
2023-02-25T06:44:40.769Z,3.28
2023-02-25T06:47:08.709Z,2.40
2023-02-25T06:49:36.609Z,2.58
2023-02-25T06:52:04.824Z,2.78
2023-02-25T06:54:32.817Z,2.30
2023-02-25T06:57:02.244Z,2.00
2023-02-25T06:59:30.301Z,2.03
2023-02-25T07:01:58.183Z,2.20
2023-02-25T07:04:26.149Z,2.28
2023-02-25T07:06:54.120Z,2.00
2023-02-25T07:09:22.052Z,1.80
2023-02-25T07:11:50.042Z,2.45
2023-02-25T07:14:19.319Z,2.55
2023-02-25T07:16:47.397Z,2.22
2023-02-25T07:19:16.541Z,2.00
2023-02-25T07:21:45.087Z,2.30
2023-02-25T07:24:14.076Z,2.08
2023-02-25T07:26:41.966Z,2.20
2023-02-25T07:29:10.937Z,2.15
2023-02-25T07:31:40.616Z,2.20
2023-02-25T07:34:09.528Z,2.05
2023-02-25T07:36:38.052Z,2.28
2023-02-25T07:39:07.447Z,2.10
2023-02-25T07:41:36.289Z,2.47
2023-02-25T07:44:04.548Z,1.90
2023-02-25T15:02:50.086Z,3.85
2023-02-25T15:05:31.736Z,3.45
2023-02-25T15:08:24.312Z,3.47
2023-02-25T15:11:08.774Z,2.67
2023-02-25T15:14:17.643Z,2.45
2023-02-25T15:17:15.536Z,1.65
2023-02-25T15:20:11.034Z,1.95
2023-02-25T15:22:53.797Z,1.73
2023-02-25T15:25:45.339Z,1.52
2023-02-25T15:28:39.402Z,1.67
2023-02-25T15:31:28.444Z,1.35
2023-02-25T15:34:34.628Z,1.65
2023-02-25T15:37:25.746Z,1.30
2023-02-25T15:39:56.455Z,1.40
2023-02-25T15:42:49.479Z,1.17
2023-02-25T15:45:48.152Z,1.20
2023-02-25T15:48:37.845Z,1.52
2023-02-25T15:51:11.464Z,2.03
2023-02-25T15:53:48.057Z,2.75
2023-02-25T15:56:47.676Z,3.95
2023-02-25T15:59:43.913Z,6.50
2023-02-25T16:02:34.826Z,2.08
2023-02-25T16:05:05.647Z,5.85
2023-02-25T16:07:37.921Z,6.25
2023-02-25T16:10:19.328Z,4.70
2023-02-25T16:12:49.778Z,3.33
2023-02-25T16:15:27.293Z,2.40
2023-02-25T16:17:57.484Z,4.18
2023-02-25T16:20:30.422Z,1.98
2023-02-25T16:23:00.808Z,2.00
2023-02-25T16:25:38.131Z,1.80
2023-02-25T16:28:21.221Z,1.83
2023-02-25T16:30:55.723Z,2.30
2023-02-25T16:33:31.174Z,2.05
2023-02-25T16:36:07.952Z,1.85
2023-02-25T16:38:43.251Z,2.17
2023-02-25T16:41:13.688Z,1.70
2023-02-25T16:43:43.608Z,2.50
2023-02-25T16:46:14.503Z,2.25
2023-02-25T16:48:50.159Z,2.40
2023-02-25T16:51:26.899Z,6.85
2023-02-25T16:53:59.889Z,5.85
2023-02-25T16:56:30.920Z,5.00
2023-02-25T16:59:02.689Z,3.65
2023-02-25T17:01:32.810Z,2.85
2023-02-25T17:04:15.174Z,3.38
2023-02-25T17:06:43.892Z,2.20
2023-02-25T17:09:24.503Z,3.10
2023-02-25T17:11:57.411Z,3.25
2023-02-25T17:14:26.454Z,3.20
2023-02-25T17:16:55.135Z,3.60
2023-02-25T17:19:24.772Z,3.53
2023-02-25T17:21:56.010Z,3.67
2023-02-25T17:24:27.996Z,4.55
2023-02-25T17:26:57.681Z,3.78
2023-02-25T17:29:35.828Z,4.28
2023-02-25T17:32:15.049Z,4.03
2023-02-25T17:34:44.458Z,3.63
2023-02-25T17:37:14.117Z,3.70
2023-02-25T17:39:44.278Z,3.88
2023-02-25T17:42:31.372Z,5.00
2023-02-25T17:45:02.149Z,4.93
2023-02-25T17:47:31.971Z,4.75
2023-02-25T17:50:05.614Z,4.65
2023-02-25T17:52:34.121Z,4.63
2023-02-25T17:55:06.423Z,4.50
2023-02-25T17:57:42.452Z,5.32
2023-02-25T18:00:14.337Z,4.65
2023-02-25T18:02:44.074Z,5.10
2023-02-25T18:05:26.111Z,3.85
2023-02-25T18:08:04.634Z,4.15
2023-02-25T18:10:52.391Z,3.70
2023-02-25T18:13:27.308Z,3.50
2023-02-25T18:16:31.981Z,4.50
2023-02-25T18:19:01.397Z,2.30
2023-02-25T18:21:29.840Z,5.97
2023-02-25T18:23:58.373Z,2.88
2023-02-25T18:26:27.192Z,2.60
2023-02-25T18:28:58.524Z,2.80
2023-02-25T18:31:27.050Z,2.97
2023-02-25T18:33:55.149Z,2.38
2023-02-25T18:36:26.765Z,2.65
2023-02-25T18:38:57.698Z,2.47
2023-02-25T18:41:25.675Z,2.22
2023-02-25T18:43:54.613Z,2.67
2023-02-25T18:46:24.508Z,2.95
2023-02-25T18:48:52.660Z,3.20
2023-02-25T18:51:23.309Z,3.03
2023-02-25T18:53:54.690Z,3.30
2023-02-25T18:56:23.121Z,3.38
2023-02-25T18:58:54.626Z,4.03
2023-02-25T19:01:29.859Z,4.22
2023-02-25T19:04:00.305Z,4.90
2023-02-25T19:06:29.342Z,5.07
2023-02-25T19:08:57.390Z,5.15
2023-02-25T19:11:28.174Z,5.30
2023-02-25T19:13:56.336Z,5.70
2023-02-25T19:16:26.237Z,6.47
2023-02-25T19:18:54.977Z,6.05
2023-02-25T19:21:23.417Z,6.30
2023-02-25T19:23:53.610Z,5.18
2023-02-25T19:26:22.389Z,5.45
2023-02-25T19:28:50.456Z,6.22
2023-02-25T19:31:19.138Z,5.65
2023-02-25T19:33:48.573Z,6.55
2023-02-25T19:36:16.566Z,6.95
2023-02-25T19:38:44.586Z,6.95
2023-02-25T19:41:16.284Z,8.48
2023-02-25T19:43:44.423Z,9.23
2023-02-25T19:46:12.410Z,7.30
2023-02-25T19:48:40.461Z,9.02
2023-02-25T19:51:11.167Z,7.43
2023-02-25T19:53:39.346Z,7.13
2023-02-25T19:56:10.474Z,8.00
2023-02-25T19:58:38.545Z,7.10
2023-02-25T20:01:08.405Z,6.63
2023-02-25T20:03:37.130Z,6.10
2023-02-25T20:06:06.916Z,6.40
2023-02-25T20:08:38.549Z,6.53
2023-02-25T20:11:10.077Z,6.50
2023-02-25T20:13:38.588Z,6.63
2023-02-25T20:16:09.056Z,6.82
2023-02-25T20:18:37.086Z,6.63
2023-02-25T20:21:05.780Z,6.80
2023-02-25T20:23:33.788Z,7.10
2023-02-25T20:26:07.935Z,7.13
2023-02-25T20:28:36.297Z,7.60
2023-02-25T20:31:05.920Z,7.60
2023-02-25T20:33:34.253Z,7.55
2023-02-25T20:36:04.700Z,7.65
2023-02-25T20:38:37.516Z,9.05
2023-02-25T20:41:07.587Z,8.27
2023-02-25T20:43:36.405Z,9.00
2023-02-25T20:46:04.707Z,10.27
2023-02-25T20:48:33.983Z,11.23
2023-02-25T20:51:02.225Z,8.75
2023-02-25T20:53:30.704Z,8.50
2023-02-25T20:55:59.231Z,8.65
2023-02-25T20:58:28.632Z,9.68
